Dripping Springs, TX (78620)

5:57 PM CDT on September 17, 2014 (GMT -0500)
Heather Hills | Change Station
CLOSE
Current Station
Personal Weather Station
Location: Dripping Springs, TX
Elevation: 1217 ft
Nearby Weather Stations

Elev 1217 ft 30.26 °N, 98.11 °W | Updated 15 seconds ago

Partly Cloudy
Partly Cloudy
86.1 °F
Feels Like 94 °F
N
4.0
Wind Variable Wind from South
Gusts 4.0 mph

Today
High -- | Low -- °F
--% Chance of Precip.
Yesterday
High -- | Low -- °F
Precip. -- in
7:18 AM 7:35 PM
Waning Crescent, 32% visible
Pressure 29.88 in
Visibility 10.0 miles
Clouds Clear
Heat Index 94 °F
Dew Point 74 °F
Humidity 67%
Rainfall 0.06 in
Snow Depth Not available.
UV 2 out of 12
Pollen 8.20 out of 12
Ozone Good
PM2.5 Good
Flu Activity Not available.
METAR KRYW 172235Z AUTO 15009G15KT 10SM CLR 31/22 A2988 RMK AO2 LTG DSNT NE AND E T03110217

More Conditions Fewer Conditions

Pressure 29.88 in
Visibility 10.0 miles
Clouds Clear
Heat Index 94 °F
Dew Point 74 °F
Humidity 67%
Rainfall 0.06 in
Snow Depth Not available.
UV 2 out of 12
Pollen 8.20 out of 12
Ozone Good
PM2.5 Good
Flu Activity Not available.
METAR KRYW 172235Z AUTO 15009G15KT 10SM CLR 31/22 A2988 RMK AO2 LTG DSNT NE AND E T03110217

More Conditions Fewer Conditions

Nowcast | as of 5:06 PM CDT on September 17, 2014

Through 8 PM...isolated to scattered showers and thunderstorms will affect all of south-central Texas. Movement of the convection will be to the east-northeast at around 5 mph. Residents can expect between a tenth and a half of an inch of precipitation... with any of the heavier or slower-moving showers and thunderstorms producing up to 2 inches of rainfall.

×

10-Day Weather Forecast

Almanac

Astronomy

Sep. 17, 2014 Rise Set
Actual Time 7:18 AM CDT 7:35 PM CDT
Civil Twilight 6:54 AM CDT 7:59 PM CDT
Nautical Twilight 6:26 AM CDT 8:27 PM CDT
Astronomical Twilight 5:57 AM CDT 8:55 PM CDT
Moon 1:37 AM CDT 3:29 PM CDT
Length of Visible Light 13h 05m
Length of Day
12h 17m
Tomorrow will be 1m 48s shorter.
Waning Crescent, 32% of the Moon is Illuminated
Today
Waning Crescent
Sep 24
New
Oct 1
First Quarter
Oct 8
Full
Oct 15
Last Quarter

Today's Extremes

State Highs State Lows

Community

WunderPhotos

Upload Photos

1,754,185 photos uploaded!

Nearby

Air Quality

  Air Quality AQ Index Pollutant
Yesterday Good
OZONE
Yesterday Good
PM2.5
Current Good
OZONE
Current Good
PM2.5
Wednesday Good
OZONE
Wednesday Good
PM10
Thursday Good
OZONE
Thursday Good
PM10
Friday Good
OZONE
Friday Good
PM10
Saturday Good
OZONE
Saturday Good
PM10

Snow Depth

Station Depth Elevation
No new snow has been reported.

Earthquake Activity

City Distance Mag. Time & Date
No recent earthquake activity has been reported nearby.
Minimum magnitude displayed is 2.5.

Coastal Water Temperatures

Place Temperature
No Stations Reporting

Nearby Weather Stations